sensor_id;sensor_type;location;lat;lon;timestamp;temperature;humidity
42743;DHT22;28397;44.552;-0.848;2024-01-16T00:00:56;10.40;99.90
42743;DHT22;28397;44.552;-0.848;2024-01-16T00:03:22;10.40;99.90
42743;DHT22;28397;44.552;-0.848;2024-01-16T00:05:48;10.20;99.90
42743;DHT22;28397;44.552;-0.848;2024-01-16T00:08:14;10.10;99.90
42743;DHT22;28397;44.552;-0.848;2024-01-16T00:10:40;10.00;99.90
42743;DHT22;28397;44.552;-0.848;2024-01-16T00:13:05;9.90;99.90
42743;DHT22;28397;44.552;-0.848;2024-01-16T00:15:31;9.80;99.90
42743;DHT22;28397;44.552;-0.848;2024-01-16T00:17:56;9.70;99.90
42743;DHT22;28397;44.552;-0.848;2024-01-16T00:20:22;9.70;99.90
42743;DHT22;28397;44.552;-0.848;2024-01-16T00:22:50;9.70;99.90
42743;DHT22;28397;44.552;-0.848;2024-01-16T00:25:17;9.60;99.90
42743;DHT22;28397;44.552;-0.848;2024-01-16T00:27:45;9.60;99.90
42743;DHT22;28397;44.552;-0.848;2024-01-16T00:30:12;9.50;99.90
42743;DHT22;28397;44.552;-0.848;2024-01-16T00:32:39;9.50;99.90
42743;DHT22;28397;44.552;-0.848;2024-01-16T00:35:05;9.50;99.90
42743;DHT22;28397;44.552;-0.848;2024-01-16T00:37:30;9.50;99.90
42743;DHT22;28397;44.552;-0.848;2024-01-16T00:39:56;9.50;99.90
42743;DHT22;28397;44.552;-0.848;2024-01-16T00:42:22;9.50;99.90
42743;DHT22;28397;44.552;-0.848;2024-01-16T00:44:47;9.50;99.90
42743;DHT22;28397;44.552;-0.848;2024-01-16T00:47:13;9.50;99.90
42743;DHT22;28397;44.552;-0.848;2024-01-16T00:49:39;9.50;99.90
42743;DHT22;28397;44.552;-0.848;2024-01-16T00:52:04;9.40;99.90
42743;DHT22;28397;44.552;-0.848;2024-01-16T00:54:32;9.50;99.90
42743;DHT22;28397;44.552;-0.848;2024-01-16T00:56:57;9.50;99.90
42743;DHT22;28397;44.552;-0.848;2024-01-16T00:59:25;9.50;99.90
42743;DHT22;28397;44.552;-0.848;2024-01-16T01:01:51;9.40;99.90
42743;DHT22;28397;44.552;-0.848;2024-01-16T01:04:17;9.40;99.90
42743;DHT22;28397;44.552;-0.848;2024-01-16T01:06:43;9.40;99.90
42743;DHT22;28397;44.552;-0.848;2024-01-16T01:09:08;9.40;99.90
42743;DHT22;28397;44.552;-0.848;2024-01-16T01:11:37;9.50;99.90
42743;DHT22;28397;44.552;-0.848;2024-01-16T01:14:03;9.40;99.90
42743;DHT22;28397;44.552;-0.848;2024-01-16T01:16:29;9.40;99.90
42743;DHT22;28397;44.552;-0.848;2024-01-16T01:18:55;9.40;99.90
42743;DHT22;28397;44.552;-0.848;2024-01-16T01:21:20;9.40;99.90
42743;DHT22;28397;44.552;-0.848;2024-01-16T01:23:46;9.40;99.90
42743;DHT22;28397;44.552;-0.848;2024-01-16T01:26:12;9.40;99.90
42743;DHT22;28397;44.552;-0.848;2024-01-16T01:28:43;9.30;99.90
42743;DHT22;28397;44.552;-0.848;2024-01-16T01:31:12;9.40;99.90
42743;DHT22;28397;44.552;-0.848;2024-01-16T01:33:39;9.70;99.90
42743;DHT22;28397;44.552;-0.848;2024-01-16T01:36:05;9.80;99.90
42743;DHT22;28397;44.552;-0.848;2024-01-16T01:38:31;10.00;99.90
42743;DHT22;28397;44.552;-0.848;2024-01-16T01:40:56;10.10;99.90
42743;DHT22;28397;44.552;-0.848;2024-01-16T01:43:24;10.30;99.90
42743;DHT22;28397;44.552;-0.848;2024-01-16T01:46:08;10.40;99.90
42743;DHT22;28397;44.552;-0.848;2024-01-16T01:48:39;10.30;99.90
42743;DHT22;28397;44.552;-0.848;2024-01-16T01:51:06;10.30;99.90
42743;DHT22;28397;44.552;-0.848;2024-01-16T01:53:33;10.10;99.90
42743;DHT22;28397;44.552;-0.848;2024-01-16T01:56:03;10.00;99.90
42743;DHT22;28397;44.552;-0.848;2024-01-16T01:58:32;9.90;99.90
42743;DHT22;28397;44.552;-0.848;2024-01-16T02:00:57;9.80;99.90
42743;DHT22;28397;44.552;-0.848;2024-01-16T02:03:27;9.80;99.90
42743;DHT22;28397;44.552;-0.848;2024-01-16T02:05:55;9.70;99.90
42743;DHT22;28397;44.552;-0.848;2024-01-16T02:08:22;9.70;99.90
42743;DHT22;28397;44.552;-0.848;2024-01-16T02:10:49;9.60;99.90
42743;DHT22;28397;44.552;-0.848;2024-01-16T02:13:15;9.50;99.90
42743;DHT22;28397;44.552;-0.848;2024-01-16T02:15:44;9.50;99.90
42743;DHT22;28397;44.552;-0.848;2024-01-16T02:18:09;9.60;99.90
42743;DHT22;28397;44.552;-0.848;2024-01-16T02:20:35;9.60;99.90
42743;DHT22;28397;44.552;-0.848;2024-01-16T02:23:03;9.50;99.90
42743;DHT22;28397;44.552;-0.848;2024-01-16T02:25:30;9.50;99.90
42743;DHT22;28397;44.552;-0.848;2024-01-16T02:27:55;9.50;99.90
42743;DHT22;28397;44.552;-0.848;2024-01-16T02:30:21;9.50;99.90
42743;DHT22;28397;44.552;-0.848;2024-01-16T02:32:47;9.50;99.90
42743;DHT22;28397;44.552;-0.848;2024-01-16T02:35:13;9.50;99.90
42743;DHT22;28397;44.552;-0.848;2024-01-16T02:37:38;9.50;99.90
42743;DHT22;28397;44.552;-0.848;2024-01-16T02:40:04;9.50;99.90
42743;DHT22;28397;44.552;-0.848;2024-01-16T02:42:32;9.50;99.90
42743;DHT22;28397;44.552;-0.848;2024-01-16T02:44:58;9.50;99.90
42743;DHT22;28397;44.552;-0.848;2024-01-16T02:47:24;9.50;99.90
42743;DHT22;28397;44.552;-0.848;2024-01-16T02:49:50;9.50;99.90
42743;DHT22;28397;44.552;-0.848;2024-01-16T02:52:15;9.50;99.90
42743;DHT22;28397;44.552;-0.848;2024-01-16T02:54:41;9.60;99.90
42743;DHT22;28397;44.552;-0.848;2024-01-16T02:57:07;9.60;99.90
42743;DHT22;28397;44.552;-0.848;2024-01-16T02:59:32;9.50;99.90
42743;DHT22;28397;44.552;-0.848;2024-01-16T03:01:58;9.40;99.90
42743;DHT22;28397;44.552;-0.848;2024-01-16T03:04:24;9.40;99.90
42743;DHT22;28397;44.552;-0.848;2024-01-16T03:06:49;9.40;99.90
42743;DHT22;28397;44.552;-0.848;2024-01-16T03:09:15;9.40;99.90
42743;DHT22;28397;44.552;-0.848;2024-01-16T03:11:41;9.50;99.90
42743;DHT22;28397;44.552;-0.848;2024-01-16T03:14:07;9.50;99.90
42743;DHT22;28397;44.552;-0.848;2024-01-16T03:16:32;9.40;99.90
42743;DHT22;28397;44.552;-0.848;2024-01-16T03:18:58;9.40;99.90
42743;DHT22;28397;44.552;-0.848;2024-01-16T03:21:24;9.60;99.90
42743;DHT22;28397;44.552;-0.848;2024-01-16T03:23:50;9.80;99.90
42743;DHT22;28397;44.552;-0.848;2024-01-16T03:26:15;10.00;99.90
42743;DHT22;28397;44.552;-0.848;2024-01-16T03:28:42;10.10;99.90
42743;DHT22;28397;44.552;-0.848;2024-01-16T03:31:08;10.20;99.90
42743;DHT22;28397;44.552;-0.848;2024-01-16T03:33:34;10.30;99.90
42743;DHT22;28397;44.552;-0.848;2024-01-16T03:36:00;10.30;99.90
42743;DHT22;28397;44.552;-0.848;2024-01-16T03:38:26;10.30;99.90
42743;DHT22;28397;44.552;-0.848;2024-01-16T03:40:52;10.30;99.90
42743;DHT22;28397;44.552;-0.848;2024-01-16T03:43:18;10.20;99.90
42743;DHT22;28397;44.552;-0.848;2024-01-16T03:45:44;10.00;99.90
42743;DHT22;28397;44.552;-0.848;2024-01-16T03:48:10;10.00;99.90
42743;DHT22;28397;44.552;-0.848;2024-01-16T03:50:35;9.90;99.90
42743;DHT22;28397;44.552;-0.848;2024-01-16T03:53:02;9.80;99.90
42743;DHT22;28397;44.552;-0.848;2024-01-16T03:55:29;9.80;99.90
42743;DHT22;28397;44.552;-0.848;2024-01-16T03:57:56;9.70;99.90
42743;DHT22;28397;44.552;-0.848;2024-01-16T04:00:22;9.60;99.90
42743;DHT22;28397;44.552;-0.848;2024-01-16T04:02:47;9.60;99.90
42743;DHT22;28397;44.552;-0.848;2024-01-16T04:05:13;9.60;99.90
42743;DHT22;28397;44.552;-0.848;2024-01-16T04:07:38;9.60;99.90
42743;DHT22;28397;44.552;-0.848;2024-01-16T04:10:06;9.50;99.90
42743;DHT22;28397;44.552;-0.848;2024-01-16T04:12:32;9.50;99.90
42743;DHT22;28397;44.552;-0.848;2024-01-16T04:14:58;9.50;99.90
42743;DHT22;28397;44.552;-0.848;2024-01-16T04:17:23;9.50;99.90
42743;DHT22;28397;44.552;-0.848;2024-01-16T04:19:49;9.50;99.90
42743;DHT22;28397;44.552;-0.848;2024-01-16T04:22:14;9.50;99.90
42743;DHT22;28397;44.552;-0.848;2024-01-16T04:24:40;9.50;99.90
42743;DHT22;28397;44.552;-0.848;2024-01-16T04:27:06;9.50;99.90
42743;DHT22;28397;44.552;-0.848;2024-01-16T04:29:31;9.50;99.90
42743;DHT22;28397;44.552;-0.848;2024-01-16T04:31:57;9.50;99.90
42743;DHT22;28397;44.552;-0.848;2024-01-16T04:34:23;9.40;99.90
42743;DHT22;28397;44.552;-0.848;2024-01-16T04:36:49;9.40;99.90
42743;DHT22;28397;44.552;-0.848;2024-01-16T04:39:14;9.50;99.90
42743;DHT22;28397;44.552;-0.848;2024-01-16T04:41:40;9.40;99.90
42743;DHT22;28397;44.552;-0.848;2024-01-16T04:44:05;9.50;99.90
42743;DHT22;28397;44.552;-0.848;2024-01-16T04:46:31;9.40;99.90
42743;DHT22;28397;44.552;-0.848;2024-01-16T04:48:57;9.50;99.90
42743;DHT22;28397;44.552;-0.848;2024-01-16T04:51:22;9.40;99.90
42743;DHT22;28397;44.552;-0.848;2024-01-16T04:53:48;9.40;99.90
42743;DHT22;28397;44.552;-0.848;2024-01-16T04:56:14;9.40;99.90
42743;DHT22;28397;44.552;-0.848;2024-01-16T04:58:39;9.40;99.90
42743;DHT22;28397;44.552;-0.848;2024-01-16T05:01:05;9.40;99.90
42743;DHT22;28397;44.552;-0.848;2024-01-16T05:03:30;9.40;99.90
42743;DHT22;28397;44.552;-0.848;2024-01-16T05:05:56;9.40;99.90
42743;DHT22;28397;44.552;-0.848;2024-01-16T05:08:22;9.50;99.90
42743;DHT22;28397;44.552;-0.848;2024-01-16T05:10:48;9.70;99.90
42743;DHT22;28397;44.552;-0.848;2024-01-16T05:13:14;9.90;99.90
42743;DHT22;28397;44.552;-0.848;2024-01-16T05:15:40;10.10;99.90
42743;DHT22;28397;44.552;-0.848;2024-01-16T05:18:06;10.10;99.90
42743;DHT22;28397;44.552;-0.848;2024-01-16T05:20:32;10.30;99.90
42743;DHT22;28397;44.552;-0.848;2024-01-16T05:22:57;10.40;99.90
42743;DHT22;28397;44.552;-0.848;2024-01-16T05:25:23;10.30;99.90
42743;DHT22;28397;44.552;-0.848;2024-01-16T05:27:49;10.40;99.90
42743;DHT22;28397;44.552;-0.848;2024-01-16T05:30:17;10.30;99.90
42743;DHT22;28397;44.552;-0.848;2024-01-16T05:32:43;10.10;99.90
42743;DHT22;28397;44.552;-0.848;2024-01-16T05:35:09;10.00;99.90
42743;DHT22;28397;44.552;-0.848;2024-01-16T05:37:37;9.90;99.90
42743;DHT22;28397;44.552;-0.848;2024-01-16T05:40:03;9.80;99.90
42743;DHT22;28397;44.552;-0.848;2024-01-16T05:42:29;9.80;99.90
42743;DHT22;28397;44.552;-0.848;2024-01-16T05:44:55;9.70;99.90
42743;DHT22;28397;44.552;-0.848;2024-01-16T05:47:21;9.70;99.90
42743;DHT22;28397;44.552;-0.848;2024-01-16T05:49:49;9.70;99.90
42743;DHT22;28397;44.552;-0.848;2024-01-16T05:52:15;9.60;99.90
42743;DHT22;28397;44.552;-0.848;2024-01-16T05:54:40;9.60;99.90
42743;DHT22;28397;44.552;-0.848;2024-01-16T05:57:06;9.50;99.90
42743;DHT22;28397;44.552;-0.848;2024-01-16T05:59:31;9.60;99.90
42743;DHT22;28397;44.552;-0.848;2024-01-16T06:01:57;9.60;99.90
42743;DHT22;28397;44.552;-0.848;2024-01-16T06:04:23;9.50;99.90
42743;DHT22;28397;44.552;-0.848;2024-01-16T06:06:48;9.60;99.90
42743;DHT22;28397;44.552;-0.848;2024-01-16T06:09:14;9.60;99.90
42743;DHT22;28397;44.552;-0.848;2024-01-16T06:11:40;9.50;99.90
42743;DHT22;28397;44.552;-0.848;2024-01-16T06:14:09;9.60;99.90
42743;DHT22;28397;44.552;-0.848;2024-01-16T06:16:35;9.60;99.90
42743;DHT22;28397;44.552;-0.848;2024-01-16T06:19:01;9.50;99.90
42743;DHT22;28397;44.552;-0.848;2024-01-16T06:21:27;9.60;99.90
42743;DHT22;28397;44.552;-0.848;2024-01-16T06:23:53;9.60;99.90
42743;DHT22;28397;44.552;-0.848;2024-01-16T06:26:18;9.60;99.90
42743;DHT22;28397;44.552;-0.848;2024-01-16T06:28:44;9.60;99.90
42743;DHT22;28397;44.552;-0.848;2024-01-16T06:31:10;9.70;99.90
42743;DHT22;28397;44.552;-0.848;2024-01-16T06:33:36;9.60;99.90
42743;DHT22;28397;44.552;-0.848;2024-01-16T06:36:03;9.60;99.90
42743;DHT22;28397;44.552;-0.848;2024-01-16T06:38:31;9.60;99.90
42743;DHT22;28397;44.552;-0.848;2024-01-16T06:40:57;9.50;99.90
42743;DHT22;28397;44.552;-0.848;2024-01-16T06:43:23;9.40;99.90
42743;DHT22;28397;44.552;-0.848;2024-01-16T06:45:49;9.40;99.90
42743;DHT22;28397;44.552;-0.848;2024-01-16T06:48:15;9.40;99.90
42743;DHT22;28397;44.552;-0.848;2024-01-16T06:50:41;9.30;99.90
42743;DHT22;28397;44.552;-0.848;2024-01-16T06:53:07;9.20;99.90
42743;DHT22;28397;44.552;-0.848;2024-01-16T06:55:33;9.20;99.90
42743;DHT22;28397;44.552;-0.848;2024-01-16T06:57:58;9.20;99.90
42743;DHT22;28397;44.552;-0.848;2024-01-16T07:00:24;9.20;99.90
42743;DHT22;28397;44.552;-0.848;2024-01-16T07:02:52;9.40;99.90
42743;DHT22;28397;44.552;-0.848;2024-01-16T07:05:17;9.60;99.90
42743;DHT22;28397;44.552;-0.848;2024-01-16T07:07:43;9.80;99.90
42743;DHT22;28397;44.552;-0.848;2024-01-16T07:10:09;9.90;99.90
42743;DHT22;28397;44.552;-0.848;2024-01-16T07:12:39;10.00;99.90
42743;DHT22;28397;44.552;-0.848;2024-01-16T07:15:05;10.00;99.90
42743;DHT22;28397;44.552;-0.848;2024-01-16T07:17:31;10.00;99.90
42743;DHT22;28397;44.552;-0.848;2024-01-16T07:19:57;9.90;99.90
42743;DHT22;28397;44.552;-0.848;2024-01-16T07:22:24;9.90;99.90
42743;DHT22;28397;44.552;-0.848;2024-01-16T07:24:49;10.00;99.90
42743;DHT22;28397;44.552;-0.848;2024-01-16T07:27:15;10.10;99.90
42743;DHT22;28397;44.552;-0.848;2024-01-16T07:29:41;10.20;99.90
42743;DHT22;28397;44.552;-0.848;2024-01-16T07:32:07;10.30;99.90
42743;DHT22;28397;44.552;-0.848;2024-01-16T07:34:32;10.30;99.90
42743;DHT22;28397;44.552;-0.848;2024-01-16T07:36:59;10.40;99.90
42743;DHT22;28397;44.552;-0.848;2024-01-16T07:39:25;10.30;99.90
42743;DHT22;28397;44.552;-0.848;2024-01-16T07:41:50;10.40;99.90
42743;DHT22;28397;44.552;-0.848;2024-01-16T07:44:16;10.40;99.90
42743;DHT22;28397;44.552;-0.848;2024-01-16T07:46:41;10.40;99.90
42743;DHT22;28397;44.552;-0.848;2024-01-16T07:49:07;10.40;99.90
42743;DHT22;28397;44.552;-0.848;2024-01-16T07:51:33;10.40;99.90
42743;DHT22;28397;44.552;-0.848;2024-01-16T07:54:09;10.40;99.90
42743;DHT22;28397;44.552;-0.848;2024-01-16T07:56:36;10.50;99.90
42743;DHT22;28397;44.552;-0.848;2024-01-16T07:59:02;10.60;99.90
42743;DHT22;28397;44.552;-0.848;2024-01-16T08:01:28;10.60;99.90
42743;DHT22;28397;44.552;-0.848;2024-01-16T08:03:57;10.60;99.90
42743;DHT22;28397;44.552;-0.848;2024-01-16T08:06:23;10.70;99.90
42743;DHT22;28397;44.552;-0.848;2024-01-16T08:08:49;10.70;99.90
42743;DHT22;28397;44.552;-0.848;2024-01-16T08:11:17;10.80;99.90
42743;DHT22;28397;44.552;-0.848;2024-01-16T08:13:43;10.80;99.90
42743;DHT22;28397;44.552;-0.848;2024-01-16T08:16:09;10.90;99.90
42743;DHT22;28397;44.552;-0.848;2024-01-16T08:18:35;10.90;99.90
42743;DHT22;28397;44.552;-0.848;2024-01-16T08:21:01;10.90;99.90
42743;DHT22;28397;44.552;-0.848;2024-01-16T08:23:26;11.00;99.90
42743;DHT22;28397;44.552;-0.848;2024-01-16T08:25:52;11.00;99.90
42743;DHT22;28397;44.552;-0.848;2024-01-16T08:28:18;11.00;99.90
42743;DHT22;28397;44.552;-0.848;2024-01-16T08:30:44;11.10;99.90
42743;DHT22;28397;44.552;-0.848;2024-01-16T08:33:11;11.20;99.90
42743;DHT22;28397;44.552;-0.848;2024-01-16T08:35:37;11.20;99.90
42743;DHT22;28397;44.552;-0.848;2024-01-16T08:38:03;11.20;99.90
42743;DHT22;28397;44.552;-0.848;2024-01-16T08:40:29;11.30;99.90
42743;DHT22;28397;44.552;-0.848;2024-01-16T08:42:55;11.30;99.90
42743;DHT22;28397;44.552;-0.848;2024-01-16T08:45:21;11.40;99.90
42743;DHT22;28397;44.552;-0.848;2024-01-16T08:47:47;11.60;99.90
42743;DHT22;28397;44.552;-0.848;2024-01-16T08:50:13;11.80;99.90
42743;DHT22;28397;44.552;-0.848;2024-01-16T08:52:40;11.90;99.90
42743;DHT22;28397;44.552;-0.848;2024-01-16T08:55:05;11.90;99.90
42743;DHT22;28397;44.552;-0.848;2024-01-16T08:57:31;12.10;99.90
42743;DHT22;28397;44.552;-0.848;2024-01-16T08:59:57;12.30;99.90
42743;DHT22;28397;44.552;-0.848;2024-01-16T09:02:23;12.40;99.90
42743;DHT22;28397;44.552;-0.848;2024-01-16T09:04:49;12.50;99.90
42743;DHT22;28397;44.552;-0.848;2024-01-16T09:07:16;12.50;99.90
42743;DHT22;28397;44.552;-0.848;2024-01-16T09:09:42;12.50;99.90
42743;DHT22;28397;44.552;-0.848;2024-01-16T09:12:11;12.60;99.90
42743;DHT22;28397;44.552;-0.848;2024-01-16T09:14:37;12.50;99.90
42743;DHT22;28397;44.552;-0.848;2024-01-16T09:17:03;12.50;99.90
42743;DHT22;28397;44.552;-0.848;2024-01-16T09:19:29;12.40;99.90
42743;DHT22;28397;44.552;-0.848;2024-01-16T09:21:55;12.40;99.90
42743;DHT22;28397;44.552;-0.848;2024-01-16T09:24:21;12.40;99.90
42743;DHT22;28397;44.552;-0.848;2024-01-16T09:26:47;12.40;99.90
42743;DHT22;28397;44.552;-0.848;2024-01-16T09:29:13;12.50;99.90
42743;DHT22;28397;44.552;-0.848;2024-01-16T09:31:40;12.50;99.90
42743;DHT22;28397;44.552;-0.848;2024-01-16T09:34:06;12.50;99.90
42743;DHT22;28397;44.552;-0.848;2024-01-16T09:36:32;12.50;99.90
42743;DHT22;28397;44.552;-0.848;2024-01-16T09:38:58;12.50;99.90
42743;DHT22;28397;44.552;-0.848;2024-01-16T09:41:23;12.70;99.90
42743;DHT22;28397;44.552;-0.848;2024-01-16T09:43:50;12.60;99.90
42743;DHT22;28397;44.552;-0.848;2024-01-16T09:46:17;12.60;99.90
42743;DHT22;28397;44.552;-0.848;2024-01-16T09:48:46;12.70;99.90
42743;DHT22;28397;44.552;-0.848;2024-01-16T09:51:12;12.80;99.90
42743;DHT22;28397;44.552;-0.848;2024-01-16T09:53:41;12.80;99.90
42743;DHT22;28397;44.552;-0.848;2024-01-16T09:56:15;12.80;99.90
42743;DHT22;28397;44.552;-0.848;2024-01-16T09:58:42;12.80;99.90
42743;DHT22;28397;44.552;-0.848;2024-01-16T10:01:09;12.90;99.90
42743;DHT22;28397;44.552;-0.848;2024-01-16T10:03:35;13.00;99.90
42743;DHT22;28397;44.552;-0.848;2024-01-16T10:06:04;13.00;99.90
42743;DHT22;28397;44.552;-0.848;2024-01-16T10:08:31;12.90;99.90
42743;DHT22;28397;44.552;-0.848;2024-01-16T10:10:58;12.90;99.90
42743;DHT22;28397;44.552;-0.848;2024-01-16T10:13:23;12.90;99.90
42743;DHT22;28397;44.552;-0.848;2024-01-16T10:15:50;12.90;99.90
42743;DHT22;28397;44.552;-0.848;2024-01-16T10:18:29;12.90;99.90
42743;DHT22;28397;44.552;-0.848;2024-01-16T10:20:59;13.00;99.90
42743;DHT22;28397;44.552;-0.848;2024-01-16T10:23:29;13.00;99.90
42743;DHT22;28397;44.552;-0.848;2024-01-16T10:26:11;13.10;99.90
42743;DHT22;28397;44.552;-0.848;2024-01-16T10:28:41;13.10;99.90
42743;DHT22;28397;44.552;-0.848;2024-01-16T10:31:12;13.20;99.90
42743;DHT22;28397;44.552;-0.848;2024-01-16T10:33:41;13.40;99.90
42743;DHT22;28397;44.552;-0.848;2024-01-16T10:36:16;13.60;99.90
42743;DHT22;28397;44.552;-0.848;2024-01-16T10:38:45;13.70;99.90
42743;DHT22;28397;44.552;-0.848;2024-01-16T10:41:16;13.90;99.90
42743;DHT22;28397;44.552;-0.848;2024-01-16T10:43:43;14.00;99.90
42743;DHT22;28397;44.552;-0.848;2024-01-16T10:46:18;14.10;99.90
42743;DHT22;28397;44.552;-0.848;2024-01-16T10:48:45;14.20;99.90
42743;DHT22;28397;44.552;-0.848;2024-01-16T10:51:23;14.40;99.90
42743;DHT22;28397;44.552;-0.848;2024-01-16T10:53:51;14.30;99.90
42743;DHT22;28397;44.552;-0.848;2024-01-16T10:56:19;14.30;99.90
42743;DHT22;28397;44.552;-0.848;2024-01-16T10:58:45;14.10;99.90
42743;DHT22;28397;44.552;-0.848;2024-01-16T11:01:17;14.00;99.90
42743;DHT22;28397;44.552;-0.848;2024-01-16T11:03:46;14.10;99.90
42743;DHT22;28397;44.552;-0.848;2024-01-16T11:06:17;14.00;99.90
42743;DHT22;28397;44.552;-0.848;2024-01-16T11:08:45;14.00;99.90
42743;DHT22;28397;44.552;-0.848;2024-01-16T11:11:13;13.90;99.90
42743;DHT22;28397;44.552;-0.848;2024-01-16T11:13:39;13.90;99.90
42743;DHT22;28397;44.552;-0.848;2024-01-16T11:16:08;14.00;99.90
42743;DHT22;28397;44.552;-0.848;2024-01-16T11:18:35;14.00;99.90
42743;DHT22;28397;44.552;-0.848;2024-01-16T11:21:04;14.00;99.90
42743;DHT22;28397;44.552;-0.848;2024-01-16T11:23:30;14.10;99.90
42743;DHT22;28397;44.552;-0.848;2024-01-16T11:25:56;14.20;99.90
42743;DHT22;28397;44.552;-0.848;2024-01-16T11:28:27;14.30;99.90
42743;DHT22;28397;44.552;-0.848;2024-01-16T11:30:55;14.50;99.90
42743;DHT22;28397;44.552;-0.848;2024-01-16T11:36:00;14.60;99.90
42743;DHT22;28397;44.552;-0.848;2024-01-16T11:40:53;14.50;99.90
42743;DHT22;28397;44.552;-0.848;2024-01-16T11:46:06;14.80;99.90
42743;DHT22;28397;44.552;-0.848;2024-01-16T11:48:33;14.60;99.90
42743;DHT22;28397;44.552;-0.848;2024-01-16T11:50:59;14.70;99.90
42743;DHT22;28397;44.552;-0.848;2024-01-16T11:53:34;14.60;99.90
42743;DHT22;28397;44.552;-0.848;2024-01-16T11:59:02;14.60;99.90
42743;DHT22;28397;44.552;-0.848;2024-01-16T12:01:32;14.50;99.90
42743;DHT22;28397;44.552;-0.848;2024-01-16T12:04:04;14.40;99.90
42743;DHT22;28397;44.552;-0.848;2024-01-16T12:06:35;14.40;99.90
42743;DHT22;28397;44.552;-0.848;2024-01-16T12:09:15;14.40;99.90
42743;DHT22;28397;44.552;-0.848;2024-01-16T12:11:41;14.40;99.90
42743;DHT22;28397;44.552;-0.848;2024-01-16T12:14:13;14.30;99.90
42743;DHT22;28397;44.552;-0.848;2024-01-16T12:16:39;14.40;99.90
42743;DHT22;28397;44.552;-0.848;2024-01-16T12:19:09;14.50;99.90
42743;DHT22;28397;44.552;-0.848;2024-01-16T12:21:42;14.60;99.90
42743;DHT22;28397;44.552;-0.848;2024-01-16T12:24:08;14.60;99.90
42743;DHT22;28397;44.552;-0.848;2024-01-16T12:26:34;14.60;99.90
42743;DHT22;28397;44.552;-0.848;2024-01-16T12:28:59;14.70;99.90
42743;DHT22;28397;44.552;-0.848;2024-01-16T12:31:27;14.70;99.90
42743;DHT22;28397;44.552;-0.848;2024-01-16T12:33:52;14.80;99.90
42743;DHT22;28397;44.552;-0.848;2024-01-16T12:36:18;15.00;99.90
42743;DHT22;28397;44.552;-0.848;2024-01-16T12:38:44;15.00;99.90
42743;DHT22;28397;44.552;-0.848;2024-01-16T12:41:10;14.80;99.90
42743;DHT22;28397;44.552;-0.848;2024-01-16T12:43:37;14.80;99.90
42743;DHT22;28397;44.552;-0.848;2024-01-16T12:46:03;14.70;99.90
42743;DHT22;28397;44.552;-0.848;2024-01-16T12:48:29;14.70;99.90
42743;DHT22;28397;44.552;-0.848;2024-01-16T12:51:01;14.70;99.90
42743;DHT22;28397;44.552;-0.848;2024-01-16T12:53:28;14.70;99.90
42743;DHT22;28397;44.552;-0.848;2024-01-16T12:56:01;14.70;99.90
42743;DHT22;28397;44.552;-0.848;2024-01-16T12:58:34;14.60;99.90
42743;DHT22;28397;44.552;-0.848;2024-01-16T13:01:23;14.70;99.90
42743;DHT22;28397;44.552;-0.848;2024-01-16T13:03:50;14.70;99.90
42743;DHT22;28397;44.552;-0.848;2024-01-16T13:06:20;14.70;99.90
42743;DHT22;28397;44.552;-0.848;2024-01-16T13:08:49;14.70;99.90
42743;DHT22;28397;44.552;-0.848;2024-01-16T13:11:16;14.70;99.90
42743;DHT22;28397;44.552;-0.848;2024-01-16T13:13:46;14.70;99.90
42743;DHT22;28397;44.552;-0.848;2024-01-16T13:16:13;14.80;99.90
42743;DHT22;28397;44.552;-0.848;2024-01-16T13:18:39;14.80;99.90
42743;DHT22;28397;44.552;-0.848;2024-01-16T13:21:05;14.80;99.90
42743;DHT22;28397;44.552;-0.848;2024-01-16T13:23:31;14.80;99.90
42743;DHT22;28397;44.552;-0.848;2024-01-16T13:25:57;14.80;99.90
42743;DHT22;28397;44.552;-0.848;2024-01-16T13:28:26;14.90;99.90
42743;DHT22;28397;44.552;-0.848;2024-01-16T13:30:52;14.90;99.90
42743;DHT22;28397;44.552;-0.848;2024-01-16T13:33:18;14.90;99.90
42743;DHT22;28397;44.552;-0.848;2024-01-16T13:35:45;15.10;99.90
42743;DHT22;28397;44.552;-0.848;2024-01-16T13:38:15;15.10;99.90
42743;DHT22;28397;44.552;-0.848;2024-01-16T13:40:44;15.10;99.90
42743;DHT22;28397;44.552;-0.848;2024-01-16T13:43:10;15.10;99.90
42743;DHT22;28397;44.552;-0.848;2024-01-16T13:45:37;15.10;99.90
42743;DHT22;28397;44.552;-0.848;2024-01-16T13:48:04;15.20;99.90
42743;DHT22;28397;44.552;-0.848;2024-01-16T13:50:32;15.20;99.90
42743;DHT22;28397;44.552;-0.848;2024-01-16T13:52:58;15.30;99.90
42743;DHT22;28397;44.552;-0.848;2024-01-16T13:55:24;15.30;99.90
42743;DHT22;28397;44.552;-0.848;2024-01-16T13:57:50;15.40;99.90
42743;DHT22;28397;44.552;-0.848;2024-01-16T14:00:16;15.50;99.90
42743;DHT22;28397;44.552;-0.848;2024-01-16T14:02:44;15.70;99.90
42743;DHT22;28397;44.552;-0.848;2024-01-16T14:05:17;15.70;99.90
42743;DHT22;28397;44.552;-0.848;2024-01-16T14:07:44;15.70;99.90
42743;DHT22;28397;44.552;-0.848;2024-01-16T14:10:12;15.70;99.90
42743;DHT22;28397;44.552;-0.848;2024-01-16T14:12:41;15.80;99.90
42743;DHT22;28397;44.552;-0.848;2024-01-16T14:15:14;15.80;99.90
42743;DHT22;28397;44.552;-0.848;2024-01-16T14:17:53;15.80;99.90
42743;DHT22;28397;44.552;-0.848;2024-01-16T14:20:22;15.60;99.90
42743;DHT22;28397;44.552;-0.848;2024-01-16T14:22:49;15.50;99.90
42743;DHT22;28397;44.552;-0.848;2024-01-16T14:25:14;15.40;99.90
42743;DHT22;28397;44.552;-0.848;2024-01-16T14:27:45;15.30;99.90
42743;DHT22;28397;44.552;-0.848;2024-01-16T14:30:14;15.20;99.90
42743;DHT22;28397;44.552;-0.848;2024-01-16T14:32:44;15.10;99.90
42743;DHT22;28397;44.552;-0.848;2024-01-16T14:35:11;15.10;99.90
42743;DHT22;28397;44.552;-0.848;2024-01-16T14:37:39;15.00;99.90
42743;DHT22;28397;44.552;-0.848;2024-01-16T14:40:05;14.80;99.90
42743;DHT22;28397;44.552;-0.848;2024-01-16T14:42:53;14.80;99.90
42743;DHT22;28397;44.552;-0.848;2024-01-16T14:45:23;14.80;99.90
42743;DHT22;28397;44.552;-0.848;2024-01-16T14:47:49;14.70;99.90
42743;DHT22;28397;44.552;-0.848;2024-01-16T14:50:17;14.70;99.90
42743;DHT22;28397;44.552;-0.848;2024-01-16T14:52:44;14.70;99.90
42743;DHT22;28397;44.552;-0.848;2024-01-16T14:55:10;14.60;99.90
42743;DHT22;28397;44.552;-0.848;2024-01-16T14:57:38;14.60;99.90
42743;DHT22;28397;44.552;-0.848;2024-01-16T15:00:13;14.60;99.90
42743;DHT22;28397;44.552;-0.848;2024-01-16T15:02:40;14.60;99.90
42743;DHT22;28397;44.552;-0.848;2024-01-16T15:05:05;14.60;99.90
42743;DHT22;28397;44.552;-0.848;2024-01-16T15:07:32;14.60;99.90
42743;DHT22;28397;44.552;-0.848;2024-01-16T15:09:58;14.60;99.90
42743;DHT22;28397;44.552;-0.848;2024-01-16T15:12:24;14.60;99.90
42743;DHT22;28397;44.552;-0.848;2024-01-16T15:14:50;14.50;99.90
42743;DHT22;28397;44.552;-0.848;2024-01-16T15:17:16;14.50;99.90
42743;DHT22;28397;44.552;-0.848;2024-01-16T15:19:41;14.50;99.90
42743;DHT22;28397;44.552;-0.848;2024-01-16T15:22:07;14.50;99.90
42743;DHT22;28397;44.552;-0.848;2024-01-16T15:24:33;14.50;99.90
42743;DHT22;28397;44.552;-0.848;2024-01-16T15:26:58;14.50;99.90
42743;DHT22;28397;44.552;-0.848;2024-01-16T15:29:24;14.50;99.90
42743;DHT22;28397;44.552;-0.848;2024-01-16T15:31:51;14.50;99.90